sensor_id;sensor_type;location;lat;lon;timestamp;pressure;altitude;pressure_sealevel;temperature;humidity
62978;BME280;49073;42.352;23.808;2023-04-23T00:01:39;94662.94;;;6.87;84.12
62978;BME280;49073;42.352;23.808;2023-04-23T00:04:46;94664.25;;;6.80;83.64
62978;BME280;49073;42.352;23.808;2023-04-23T00:07:49;94665.78;;;6.69;83.98
62978;BME280;49073;42.352;23.808;2023-04-23T00:10:50;94668.97;;;6.75;83.27
62978;BME280;49073;42.352;23.808;2023-04-23T00:13:50;94664.97;;;6.56;83.76
62978;BME280;49073;42.352;23.808;2023-04-23T00:16:52;94667.50;;;6.52;84.45
62978;BME280;49073;42.352;23.808;2023-04-23T00:19:52;94667.56;;;6.44;85.45
62978;BME280;49073;42.352;23.808;2023-04-23T00:22:53;94667.94;;;6.54;85.37
62978;BME280;49073;42.352;23.808;2023-04-23T00:25:54;94677.47;;;6.68;84.73
62978;BME280;49073;42.352;23.808;2023-04-23T00:28:55;94672.16;;;6.55;84.29
62978;BME280;49073;42.352;23.808;2023-04-23T00:31:56;94672.91;;;6.56;82.01
62978;BME280;49073;42.352;23.808;2023-04-23T00:34:57;94677.06;;;6.45;82.16
62978;BME280;49073;42.352;23.808;2023-04-23T00:37:57;94672.31;;;6.17;83.99
62978;BME280;49073;42.352;23.808;2023-04-23T00:40:59;94673.16;;;6.30;83.55
62978;BME280;49073;42.352;23.808;2023-04-23T00:43:59;94669.94;;;6.24;82.83
62978;BME280;49073;42.352;23.808;2023-04-23T00:47:00;94673.56;;;6.19;82.55
62978;BME280;49073;42.352;23.808;2023-04-23T00:50:03;94682.28;;;6.20;83.13
62978;BME280;49073;42.352;23.808;2023-04-23T00:53:04;94690.72;;;6.13;83.06
62978;BME280;49073;42.352;23.808;2023-04-23T00:56:05;94687.63;;;6.11;83.43
62978;BME280;49073;42.352;23.808;2023-04-23T00:59:06;94686.72;;;6.07;82.86
62978;BME280;49073;42.352;23.808;2023-04-23T01:02:06;94684.41;;;6.05;83.07
62978;BME280;49073;42.352;23.808;2023-04-23T01:05:08;94681.63;;;6.02;82.20
62978;BME280;49073;42.352;23.808;2023-04-23T01:08:13;94689.94;;;5.91;83.34
62978;BME280;49073;42.352;23.808;2023-04-23T01:11:15;94691.34;;;5.89;82.60
62978;BME280;49073;42.352;23.808;2023-04-23T01:14:16;94688.38;;;5.90;83.16
62978;BME280;49073;42.352;23.808;2023-04-23T01:17:16;94685.75;;;5.90;82.98
62978;BME280;49073;42.352;23.808;2023-04-23T01:20:17;94684.81;;;5.86;83.95
62978;BME280;49073;42.352;23.808;2023-04-23T01:23:18;94684.50;;;5.88;84.87
62978;BME280;49073;42.352;23.808;2023-04-23T01:26:20;94690.06;;;5.95;83.71
62978;BME280;49073;42.352;23.808;2023-04-23T01:29:21;94685.84;;;5.73;83.84
62978;BME280;49073;42.352;23.808;2023-04-23T01:32:21;94681.75;;;5.54;84.91
62978;BME280;49073;42.352;23.808;2023-04-23T01:35:23;94688.91;;;5.53;86.45
62978;BME280;49073;42.352;23.808;2023-04-23T01:38:24;94682.72;;;5.49;86.74
62978;BME280;49073;42.352;23.808;2023-04-23T01:41:27;94690.69;;;5.71;86.15
62978;BME280;49073;42.352;23.808;2023-04-23T01:44:27;94688.47;;;5.73;85.25
62978;BME280;49073;42.352;23.808;2023-04-23T01:47:29;94687.19;;;5.79;83.95
62978;BME280;49073;42.352;23.808;2023-04-23T01:50:29;94695.50;;;5.68;82.97
62978;BME280;49073;42.352;23.808;2023-04-23T01:53:30;94697.63;;;5.54;84.38
62978;BME280;49073;42.352;23.808;2023-04-23T01:56:30;94696.03;;;5.62;84.75
62978;BME280;49073;42.352;23.808;2023-04-23T01:59:34;94693.50;;;5.65;84.71
62978;BME280;49073;42.352;23.808;2023-04-23T02:02:37;94695.75;;;5.54;84.96
62978;BME280;49073;42.352;23.808;2023-04-23T02:05:39;94696.41;;;5.73;84.03
62978;BME280;49073;42.352;23.808;2023-04-23T02:08:40;94688.22;;;5.65;84.21
62978;BME280;49073;42.352;23.808;2023-04-23T02:11:41;94697.69;;;5.66;84.53
62978;BME280;49073;42.352;23.808;2023-04-23T02:14:42;94690.81;;;5.74;83.81
62978;BME280;49073;42.352;23.808;2023-04-23T02:17:42;94688.28;;;5.78;83.57
62978;BME280;49073;42.352;23.808;2023-04-23T02:20:43;94685.56;;;5.65;84.89
62978;BME280;49073;42.352;23.808;2023-04-23T02:23:43;94687.50;;;5.56;85.75
62978;BME280;49073;42.352;23.808;2023-04-23T02:26:44;94686.56;;;5.61;87.55
62978;BME280;49073;42.352;23.808;2023-04-23T02:29:45;94688.81;;;5.71;88.69
62978;BME280;49073;42.352;23.808;2023-04-23T02:32:45;94680.44;;;5.90;88.95
62978;BME280;49073;42.352;23.808;2023-04-23T02:35:46;94673.53;;;5.98;88.14
62978;BME280;49073;42.352;23.808;2023-04-23T02:38:46;94678.25;;;5.92;88.31
62978;BME280;49073;42.352;23.808;2023-04-23T02:41:50;94676.97;;;5.99;88.06
62978;BME280;49073;42.352;23.808;2023-04-23T02:44:50;94679.16;;;5.96;88.05
62978;BME280;49073;42.352;23.808;2023-04-23T02:47:51;94673.38;;;6.03;86.36
62978;BME280;49073;42.352;23.808;2023-04-23T02:50:52;94676.72;;;5.91;86.34
62978;BME280;49073;42.352;23.808;2023-04-23T02:53:53;94682.25;;;5.99;85.36
62978;BME280;49073;42.352;23.808;2023-04-23T02:56:53;94675.34;;;5.85;85.39
62978;BME280;49073;42.352;23.808;2023-04-23T02:59:54;94683.47;;;5.80;85.98
62978;BME280;49073;42.352;23.808;2023-04-23T03:02:54;94686.63;;;5.73;84.86
62978;BME280;49073;42.352;23.808;2023-04-23T03:05:57;94688.09;;;5.83;83.33
62978;BME280;49073;42.352;23.808;2023-04-23T03:08:58;94687.66;;;5.81;82.35
62978;BME280;49073;42.352;23.808;2023-04-23T03:11:58;94687.47;;;5.65;82.82
62978;BME280;49073;42.352;23.808;2023-04-23T03:14:59;94696.34;;;5.60;83.99
62978;BME280;49073;42.352;23.808;2023-04-23T03:18:00;94696.78;;;5.62;84.55
62978;BME280;49073;42.352;23.808;2023-04-23T03:21:01;94701.78;;;5.64;85.02
62978;BME280;49073;42.352;23.808;2023-04-23T03:24:01;94702.69;;;5.68;86.08
62978;BME280;49073;42.352;23.808;2023-04-23T03:27:02;94699.97;;;5.77;86.86
62978;BME280;49073;42.352;23.808;2023-04-23T03:30:02;94697.63;;;6.05;87.02
62978;BME280;49073;42.352;23.808;2023-04-23T03:33:03;94702.41;;;6.12;87.17
62978;BME280;49073;42.352;23.808;2023-04-23T03:36:04;94706.78;;;6.08;87.76
62978;BME280;49073;42.352;23.808;2023-04-23T03:39:04;94711.66;;;5.97;88.40
62978;BME280;49073;42.352;23.808;2023-04-23T03:42:05;94712.72;;;6.05;88.26
62978;BME280;49073;42.352;23.808;2023-04-23T03:45:06;94720.97;;;6.03;89.25
62978;BME280;49073;42.352;23.808;2023-04-23T03:48:08;94725.75;;;6.10;89.82
62978;BME280;49073;42.352;23.808;2023-04-23T03:51:08;94724.66;;;6.11;91.46
62978;BME280;49073;42.352;23.808;2023-04-23T03:54:09;94729.28;;;5.93;92.96
62978;BME280;49073;42.352;23.808;2023-04-23T03:57:10;94732.25;;;6.13;92.82
62978;BME280;49073;42.352;23.808;2023-04-23T04:00:13;94734.59;;;6.14;92.96
62978;BME280;49073;42.352;23.808;2023-04-23T04:03:14;94734.41;;;6.19;93.30
62978;BME280;49073;42.352;23.808;2023-04-23T04:06:14;94740.00;;;6.18;94.52
62978;BME280;49073;42.352;23.808;2023-04-23T04:09:15;94744.50;;;6.26;95.17
62978;BME280;49073;42.352;23.808;2023-04-23T04:12:16;94751.88;;;6.33;95.42
62978;BME280;49073;42.352;23.808;2023-04-23T04:15:17;94755.72;;;6.23;96.11
62978;BME280;49073;42.352;23.808;2023-04-23T04:18:19;94751.31;;;6.27;96.43
62978;BME280;49073;42.352;23.808;2023-04-23T04:21:20;94765.13;;;6.33;96.36
62978;BME280;49073;42.352;23.808;2023-04-23T04:24:20;94753.25;;;6.39;96.00
62978;BME280;49073;42.352;23.808;2023-04-23T04:27:21;94762.03;;;6.31;96.17
62978;BME280;49073;42.352;23.808;2023-04-23T04:30:23;94766.81;;;6.37;96.16
62978;BME280;49073;42.352;23.808;2023-04-23T04:33:23;94772.50;;;6.48;95.30
62978;BME280;49073;42.352;23.808;2023-04-23T04:36:25;94765.69;;;6.60;94.67
62978;BME280;49073;42.352;23.808;2023-04-23T04:39:26;94774.72;;;6.80;93.40
62978;BME280;49073;42.352;23.808;2023-04-23T04:42:29;94776.81;;;6.87;93.13
62978;BME280;49073;42.352;23.808;2023-04-23T04:45:30;94779.25;;;6.92;93.13
62978;BME280;49073;42.352;23.808;2023-04-23T04:48:31;94777.94;;;6.86;94.37
62978;BME280;49073;42.352;23.808;2023-04-23T04:51:32;94782.38;;;7.06;94.48
62978;BME280;49073;42.352;23.808;2023-04-23T04:54:32;94775.38;;;7.23;94.05
62978;BME280;49073;42.352;23.808;2023-04-23T04:57:33;94786.94;;;7.18;93.96
62978;BME280;49073;42.352;23.808;2023-04-23T05:00:33;94782.66;;;7.13;95.59
62978;BME280;49073;42.352;23.808;2023-04-23T05:03:34;94781.00;;;7.21;95.42
62978;BME280;49073;42.352;23.808;2023-04-23T05:06:36;94791.06;;;7.28;96.40
62978;BME280;49073;42.352;23.808;2023-04-23T05:09:36;94789.88;;;7.38;97.07
62978;BME280;49073;42.352;23.808;2023-04-23T05:12:37;94779.38;;;7.41;97.53
62978;BME280;49073;42.352;23.808;2023-04-23T05:15:40;94784.69;;;7.41;96.74
62978;BME280;49073;42.352;23.808;2023-04-23T05:18:41;94789.88;;;7.50;96.37
62978;BME280;49073;42.352;23.808;2023-04-23T05:21:42;94779.81;;;7.56;96.63
62978;BME280;49073;42.352;23.808;2023-04-23T05:24:42;94784.25;;;7.52;97.27
62978;BME280;49073;42.352;23.808;2023-04-23T05:27:44;94786.44;;;7.50;97.45
62978;BME280;49073;42.352;23.808;2023-04-23T05:30:45;94789.56;;;7.64;97.23
62978;BME280;49073;42.352;23.808;2023-04-23T05:33:46;94782.81;;;7.54;97.11
62978;BME280;49073;42.352;23.808;2023-04-23T05:36:46;94787.91;;;7.72;97.39
62978;BME280;49073;42.352;23.808;2023-04-23T05:39:47;94781.41;;;7.82;97.25
62978;BME280;49073;42.352;23.808;2023-04-23T05:42:47;94789.56;;;8.01;96.35
62978;BME280;49073;42.352;23.808;2023-04-23T05:45:48;94796.75;;;8.13;95.20
62978;BME280;49073;42.352;23.808;2023-04-23T05:48:48;94792.41;;;8.34;94.26
62978;BME280;49073;42.352;23.808;2023-04-23T05:51:49;94789.06;;;8.37;95.00
62978;BME280;49073;42.352;23.808;2023-04-23T05:54:50;94799.81;;;8.28;95.29
62978;BME280;49073;42.352;23.808;2023-04-23T05:57:51;94793.59;;;8.36;95.11
62978;BME280;49073;42.352;23.808;2023-04-23T06:00:52;94798.66;;;8.54;95.44
62978;BME280;49073;42.352;23.808;2023-04-23T06:03:53;94794.28;;;8.74;92.68
62978;BME280;49073;42.352;23.808;2023-04-23T06:06:53;94789.06;;;8.78;89.11
62978;BME280;49073;42.352;23.808;2023-04-23T06:09:54;94794.81;;;8.80;92.96
62978;BME280;49073;42.352;23.808;2023-04-23T06:12:54;94793.34;;;8.82;93.72
62978;BME280;49073;42.352;23.808;2023-04-23T06:15:56;94783.38;;;8.92;93.53
62978;BME280;49073;42.352;23.808;2023-04-23T06:18:56;94785.22;;;9.20;92.22
62978;BME280;49073;42.352;23.808;2023-04-23T06:21:57;94791.16;;;9.45;88.93
62978;BME280;49073;42.352;23.808;2023-04-23T06:24:58;94789.44;;;9.37;88.01
62978;BME280;49073;42.352;23.808;2023-04-23T06:27:58;94793.13;;;9.32;87.87
62978;BME280;49073;42.352;23.808;2023-04-23T06:30:59;94788.91;;;9.31;89.32
62978;BME280;49073;42.352;23.808;2023-04-23T06:34:02;94784.19;;;9.40;88.55
62978;BME280;49073;42.352;23.808;2023-04-23T06:37:03;94789.47;;;9.53;87.62
62978;BME280;49073;42.352;23.808;2023-04-23T06:40:04;94791.44;;;9.56;87.47
62978;BME280;49073;42.352;23.808;2023-04-23T06:43:05;94791.59;;;9.63;86.97
62978;BME280;49073;42.352;23.808;2023-04-23T06:46:07;94793.75;;;9.73;86.53
62978;BME280;49073;42.352;23.808;2023-04-23T06:49:07;94785.50;;;9.63;85.85
62978;BME280;49073;42.352;23.808;2023-04-23T06:52:08;94789.00;;;9.83;85.90
62978;BME280;49073;42.352;23.808;2023-04-23T06:55:09;94784.97;;;9.89;84.45
62978;BME280;49073;42.352;23.808;2023-04-23T06:58:09;94782.44;;;10.12;83.61
62978;BME280;49073;42.352;23.808;2023-04-23T07:01:10;94784.69;;;9.94;85.11
62978;BME280;49073;42.352;23.808;2023-04-23T07:04:11;94779.81;;;9.96;85.25
62978;BME280;49073;42.352;23.808;2023-04-23T07:07:12;94784.44;;;9.99;86.16
62978;BME280;49073;42.352;23.808;2023-04-23T07:10:12;94788.63;;;10.00;86.49
62978;BME280;49073;42.352;23.808;2023-04-23T07:13:13;94784.09;;;10.01;86.80
62978;BME280;49073;42.352;23.808;2023-04-23T07:16:14;94791.66;;;9.99;87.09
62978;BME280;49073;42.352;23.808;2023-04-23T07:19:14;94794.16;;;9.92;86.57
62978;BME280;49073;42.352;23.808;2023-04-23T07:22:15;94796.84;;;10.27;87.51
62978;BME280;49073;42.352;23.808;2023-04-23T07:25:15;94789.78;;;10.35;85.05
62978;BME280;49073;42.352;23.808;2023-04-23T07:28:16;94790.53;;;10.36;85.22
62978;BME280;49073;42.352;23.808;2023-04-23T07:31:17;94789.97;;;10.42;84.77
62978;BME280;49073;42.352;23.808;2023-04-23T07:34:18;94794.53;;;10.61;84.18
62978;BME280;49073;42.352;23.808;2023-04-23T07:37:19;94785.91;;;10.68;84.53
62978;BME280;49073;42.352;23.808;2023-04-23T07:40:21;94793.28;;;10.75;83.70
62978;BME280;49073;42.352;23.808;2023-04-23T07:43:21;94795.38;;;10.85;83.19
62978;BME280;49073;42.352;23.808;2023-04-23T07:46:22;94781.47;;;10.96;82.85
62978;BME280;49073;42.352;23.808;2023-04-23T07:49:23;94773.75;;;11.33;82.59
62978;BME280;49073;42.352;23.808;2023-04-23T07:52:24;94782.97;;;11.59;79.69
62978;BME280;49073;42.352;23.808;2023-04-23T07:55:25;94787.63;;;11.43;80.26
62978;BME280;49073;42.352;23.808;2023-04-23T07:58:25;94783.38;;;11.61;79.31
62978;BME280;49073;42.352;23.808;2023-04-23T08:01:26;94775.78;;;11.63;79.12
62978;BME280;49073;42.352;23.808;2023-04-23T08:04:26;94779.06;;;11.80;78.73
62978;BME280;49073;42.352;23.808;2023-04-23T08:07:27;94788.22;;;12.02;77.87
62978;BME280;49073;42.352;23.808;2023-04-23T08:10:29;94784.75;;;12.02;76.82
62978;BME280;49073;42.352;23.808;2023-04-23T08:13:29;94783.81;;;11.90;78.40
62978;BME280;49073;42.352;23.808;2023-04-23T08:16:30;94775.13;;;11.47;76.82
62978;BME280;49073;42.352;23.808;2023-04-23T08:19:30;94787.00;;;11.76;79.23
62978;BME280;49073;42.352;23.808;2023-04-23T08:22:32;94780.38;;;12.13;75.15
62978;BME280;49073;42.352;23.808;2023-04-23T08:25:33;94776.69;;;12.25;75.98
62978;BME280;49073;42.352;23.808;2023-04-23T08:28:33;94772.97;;;12.33;73.73
62978;BME280;49073;42.352;23.808;2023-04-23T08:31:34;94772.47;;;12.51;73.93
62978;BME280;49073;42.352;23.808;2023-04-23T08:34:36;94772.69;;;12.69;73.38
62978;BME280;49073;42.352;23.808;2023-04-23T08:37:36;94779.84;;;12.65;72.29
62978;BME280;49073;42.352;23.808;2023-04-23T08:40:41;94768.34;;;12.57;72.18
62978;BME280;49073;42.352;23.808;2023-04-23T08:44:01;94772.81;;;12.49;70.02
62978;BME280;49073;42.352;23.808;2023-04-23T08:47:06;94765.13;;;12.78;73.27
62978;BME280;49073;42.352;23.808;2023-04-23T08:50:11;94764.56;;;12.96;69.63
62978;BME280;49073;42.352;23.808;2023-04-23T08:53:17;94770.13;;;13.18;67.46
62978;BME280;49073;42.352;23.808;2023-04-23T08:56:20;94757.06;;;13.09;66.54
62978;BME280;49073;42.352;23.808;2023-04-23T08:59:21;94762.41;;;13.47;71.16
62978;BME280;49073;42.352;23.808;2023-04-23T09:02:22;94757.84;;;13.51;69.12
62978;BME280;49073;42.352;23.808;2023-04-23T09:05:25;94764.69;;;13.48;67.93
62978;BME280;49073;42.352;23.808;2023-04-23T09:08:26;94755.28;;;13.65;69.42
62978;BME280;49073;42.352;23.808;2023-04-23T09:11:26;94756.28;;;14.02;70.09
62978;BME280;49073;42.352;23.808;2023-04-23T09:14:29;94754.47;;;14.17;66.73
62978;BME280;49073;42.352;23.808;2023-04-23T09:17:30;94756.91;;;13.81;65.03
62978;BME280;49073;42.352;23.808;2023-04-23T09:20:32;94754.75;;;13.98;66.00
62978;BME280;49073;42.352;23.808;2023-04-23T09:23:32;94756.38;;;14.13;64.71
62978;BME280;49073;42.352;23.808;2023-04-23T09:26:33;94746.63;;;14.57;67.74
62978;BME280;49073;42.352;23.808;2023-04-23T09:29:34;94753.50;;;14.51;64.32
62978;BME280;49073;42.352;23.808;2023-04-23T09:32:37;94748.16;;;14.58;65.61
62978;BME280;49073;42.352;23.808;2023-04-23T09:35:38;94745.09;;;14.56;66.06
62978;BME280;49073;42.352;23.808;2023-04-23T09:38:40;94740.19;;;14.73;63.46
62978;BME280;49073;42.352;23.808;2023-04-23T09:41:40;94735.88;;;14.50;65.03
62978;BME280;49073;42.352;23.808;2023-04-23T09:44:41;94727.97;;;14.79;64.79
62978;BME280;49073;42.352;23.808;2023-04-23T09:47:50;94730.19;;;14.69;62.93
62978;BME280;49073;42.352;23.808;2023-04-23T09:50:53;94717.59;;;14.70;62.44
62978;BME280;49073;42.352;23.808;2023-04-23T09:53:55;94718.81;;;14.94;62.37
62978;BME280;49073;42.352;23.808;2023-04-23T09:56:58;94715.38;;;15.26;63.03
62978;BME280;49073;42.352;23.808;2023-04-23T10:00:14;94715.72;;;14.85;60.92
62978;BME280;49073;42.352;23.808;2023-04-23T10:03:31;94710.41;;;15.28;60.79
62978;BME280;49073;42.352;23.808;2023-04-23T10:06:31;94719.94;;;14.86;60.34
62978;BME280;49073;42.352;23.808;2023-04-23T10:09:32;94717.72;;;15.35;58.77
62978;BME280;49073;42.352;23.808;2023-04-23T10:12:33;94715.38;;;15.26;58.76
62978;BME280;49073;42.352;23.808;2023-04-23T10:15:35;94706.91;;;14.99;60.01
62978;BME280;49073;42.352;23.808;2023-04-23T10:18:37;94704.22;;;14.92;62.67
62978;BME280;49073;42.352;23.808;2023-04-23T10:21:40;94693.53;;;15.68;60.68
62978;BME280;49073;42.352;23.808;2023-04-23T10:24:41;94696.63;;;15.30;58.68
62978;BME280;49073;42.352;23.808;2023-04-23T10:27:48;94687.34;;;14.88;59.86
62978;BME280;49073;42.352;23.808;2023-04-23T10:30:49;94677.38;;;14.92;62.19
62978;BME280;49073;42.352;23.808;2023-04-23T10:33:51;94683.19;;;15.23;61.51
62978;BME280;49073;42.352;23.808;2023-04-23T10:36:52;94673.22;;;15.41;60.24
62978;BME280;49073;42.352;23.808;2023-04-23T10:39:54;94672.44;;;15.48;60.64
62978;BME280;49073;42.352;23.808;2023-04-23T10:42:56;94673.56;;;15.98;57.48
62978;BME280;49073;42.352;23.808;2023-04-23T10:45:59;94668.53;;;16.07;59.67
62978;BME280;49073;42.352;23.808;2023-04-23T10:49:09;94663.00;;;16.47;56.46
62978;BME280;49073;42.352;23.808;2023-04-23T10:52:13;94662.59;;;16.56;54.24
62978;BME280;49073;42.352;23.808;2023-04-23T10:55:33;94655.50;;;16.02;56.38
62978;BME280;49073;42.352;23.808;2023-04-23T10:58:50;94645.84;;;16.16;54.98
62978;BME280;49073;42.352;23.808;2023-04-23T11:01:55;94647.63;;;16.48;54.21
62978;BME280;49073;42.352;23.808;2023-04-23T11:04:58;94629.22;;;16.39;53.13
62978;BME280;49073;42.352;23.808;2023-04-23T11:08:07;94629.19;;;16.42;55.40
62978;BME280;49073;42.352;23.808;2023-04-23T11:11:08;94634.38;;;16.79;54.23
62978;BME280;49073;42.352;23.808;2023-04-23T11:14:11;94634.91;;;16.55;53.53
62978;BME280;49073;42.352;23.808;2023-04-23T11:17:17;94634.25;;;16.37;57.89
62978;BME280;49073;42.352;23.808;2023-04-23T11:20:20;94631.28;;;16.84;51.95
62978;BME280;49073;42.352;23.808;2023-04-23T11:23:30;94633.00;;;16.52;51.29
62978;BME280;49073;42.352;23.808;2023-04-23T11:26:33;94625.56;;;15.82;53.83
62978;BME280;49073;42.352;23.808;2023-04-23T11:29:35;94631.63;;;16.19;52.78
62978;BME280;49073;42.352;23.808;2023-04-23T11:32:36;94627.75;;;16.31;54.08
62978;BME280;49073;42.352;23.808;2023-04-23T11:35:39;94631.69;;;15.82;53.00
62978;BME280;49073;42.352;23.808;2023-04-23T11:38:40;94629.47;;;15.55;54.46
62978;BME280;49073;42.352;23.808;2023-04-23T11:41:41;94631.00;;;15.56;54.21
62978;BME280;49073;42.352;23.808;2023-04-23T11:44:44;94624.03;;;15.81;54.61
62978;BME280;49073;42.352;23.808;2023-04-23T11:47:46;94621.81;;;15.43;55.72
62978;BME280;49073;42.352;23.808;2023-04-23T11:50:47;94621.03;;;15.50;53.68
62978;BME280;49073;42.352;23.808;2023-04-23T11:53:48;94625.25;;;15.25;53.96
62978;BME280;49073;42.352;23.808;2023-04-23T11:56:52;94616.03;;;15.52;53.33
62978;BME280;49073;42.352;23.808;2023-04-23T11:59:52;94617.53;;;15.93;52.16
62978;BME280;49073;42.352;23.808;2023-04-23T12:02:58;94617.22;;;15.40;53.13
62978;BME280;49073;42.352;23.808;2023-04-23T12:05:59;94612.63;;;15.37;53.79
62978;BME280;49073;42.352;23.808;2023-04-23T12:09:00;94609.53;;;15.42;54.27
62978;BME280;49073;42.352;23.808;2023-04-23T12:12:00;94610.31;;;15.28;54.61
62978;BME280;49073;42.352;23.808;2023-04-23T12:15:05;94597.69;;;15.10;54.10
62978;BME280;49073;42.352;23.808;2023-04-23T12:18:10;94599.94;;;15.26;54.41
62978;BME280;49073;42.352;23.808;2023-04-23T12:21:11;94596.16;;;15.17;54.13
62978;BME280;49073;42.352;23.808;2023-04-23T12:24:12;94600.72;;;15.16;55.56
62978;BME280;49073;42.352;23.808;2023-04-23T12:27:14;94584.66;;;15.02;53.91
62978;BME280;49073;42.352;23.808;2023-04-23T12:30:15;94583.50;;;15.03;52.91
62978;BME280;49073;42.352;23.808;2023-04-23T12:33:16;94581.97;;;15.05;52.98
62978;BME280;49073;42.352;23.808;2023-04-23T12:36:17;94576.94;;;15.40;53.04
62978;BME280;49073;42.352;23.808;2023-04-23T12:42:26;94561.72;;;16.22;50.76
62978;BME280;49073;42.352;23.808;2023-04-23T12:45:35;94560.41;;;17.05;53.03
62978;BME280;49073;42.352;23.808;2023-04-23T12:48:36;94560.91;;;17.35;48.47
62978;BME280;49073;42.352;23.808;2023-04-23T12:51:37;94561.91;;;17.48;49.21
62978;BME280;49073;42.352;23.808;2023-04-23T12:54:39;94561.72;;;17.70;47.39
62978;BME280;49073;42.352;23.808;2023-04-23T12:57:39;94554.19;;;17.50;47.74
62978;BME280;49073;42.352;23.808;2023-04-23T13:00:40;94553.94;;;17.37;47.45
62978;BME280;49073;42.352;23.808;2023-04-23T13:03:40;94556.00;;;17.60;48.06
62978;BME280;49073;42.352;23.808;2023-04-23T13:06:42;94550.75;;;17.50;48.64
62978;BME280;49073;42.352;23.808;2023-04-23T13:09:42;94548.97;;;17.36;48.42
62978;BME280;49073;42.352;23.808;2023-04-23T13:12:43;94548.81;;;17.50;48.60
62978;BME280;49073;42.352;23.808;2023-04-23T13:15:43;94552.22;;;17.58;47.84
62978;BME280;49073;42.352;23.808;2023-04-23T13:18:44;94540.09;;;17.35;47.87
62978;BME280;49073;42.352;23.808;2023-04-23T13:21:45;94533.63;;;17.29;48.01
62978;BME280;49073;42.352;23.808;2023-04-23T13:24:45;94532.94;;;17.59;48.12
62978;BME280;49073;42.352;23.808;2023-04-23T13:27:46;94525.97;;;17.27;46.21
62978;BME280;49073;42.352;23.808;2023-04-23T13:30:47;94519.50;;;17.21;47.02
62978;BME280;49073;42.352;23.808;2023-04-23T13:33:47;94519.59;;;17.07;46.94
62978;BME280;49073;42.352;23.808;2023-04-23T13:36:48;94524.72;;;16.41;47.91
62978;BME280;49073;42.352;23.808;2023-04-23T13:39:48;94523.28;;;16.22;47.29
62978;BME280;49073;42.352;23.808;2023-04-23T13:42:49;94526.31;;;16.31;48.27
62978;BME280;49073;42.352;23.808;2023-04-23T13:45:52;94529.50;;;16.11;47.84
62978;BME280;49073;42.352;23.808;2023-04-23T13:48:53;94525.75;;;15.83;48.72
62978;BME280;49073;42.352;23.808;2023-04-23T13:51:53;94523.50;;;15.75;50.16
62978;BME280;49073;42.352;23.808;2023-04-23T13:54:58;94527.00;;;15.64;49.85
62978;BME280;49073;42.352;23.808;2023-04-23T13:58:05;94529.34;;;15.48;49.34
62978;BME280;49073;42.352;23.808;2023-04-23T14:01:06;94529.00;;;15.27;50.02
62978;BME280;49073;42.352;23.808;2023-04-23T14:04:06;94524.41;;;15.39;50.52
62978;BME280;49073;42.352;23.808;2023-04-23T14:07:07;94529.00;;;15.35;48.83
62978;BME280;49073;42.352;23.808;2023-04-23T14:10:07;94536.66;;;15.47;49.47
62978;BME280;49073;42.352;23.808;2023-04-23T14:13:08;94528.59;;;15.44;50.56
62978;BME280;49073;42.352;23.808;2023-04-23T14:16:08;94528.16;;;15.56;50.75
62978;BME280;49073;42.352;23.808;2023-04-23T14:19:09;94530.53;;;15.43;50.56
62978;BME280;49073;42.352;23.808;2023-04-23T14:22:10;94522.47;;;15.43;52.19
62978;BME280;49073;42.352;23.808;2023-04-23T14:25:15;94528.19;;;15.52;50.30
62978;BME280;49073;42.352;23.808;2023-04-23T14:31:26;94524.97;;;15.86;49.97
62978;BME280;49073;42.352;23.808;2023-04-23T14:34:26;94527.94;;;16.14;50.00
62978;BME280;49073;42.352;23.808;2023-04-23T14:37:27;94525.69;;;16.05;47.87
62978;BME280;49073;42.352;23.808;2023-04-23T14:40:27;94518.75;;;16.08;48.93
62978;BME280;49073;42.352;23.808;2023-04-23T14:43:28;94533.72;;;16.12;48.21
62978;BME280;49073;42.352;23.808;2023-04-23T14:46:29;94532.41;;;16.39;48.04
62978;BME280;49073;42.352;23.808;2023-04-23T14:49:29;94526.31;;;16.31;48.76
62978;BME280;49073;42.352;23.808;2023-04-23T14:52:30;94527.53;;;16.19;47.31
62978;BME280;49073;42.352;23.808;2023-04-23T14:55:31;94530.94;;;16.27;47.88
62978;BME280;49073;42.352;23.808;2023-04-23T14:58:32;94528.72;;;16.11;49.10
62978;BME280;49073;42.352;23.808;2023-04-23T15:01:33;94531.00;;;16.16;48.97
62978;BME280;49073;42.352;23.808;2023-04-23T15:04:33;94527.69;;;15.79;47.30
62978;BME280;49073;42.352;23.808;2023-04-23T15:07:37;94534.56;;;15.98;47.70
62978;BME280;49073;42.352;23.808;2023-04-23T15:10:38;94532.19;;;16.08;49.13
62978;BME280;49073;42.352;23.808;2023-04-23T15:16:57;94533.31;;;16.14;48.18
62978;BME280;49073;42.352;23.808;2023-04-23T15:19:58;94523.38;;;16.04;48.88
62978;BME280;49073;42.352;23.808;2023-04-23T15:22:59;94527.69;;;15.94;49.15
62978;BME280;49073;42.352;23.808;2023-04-23T15:26:00;94521.94;;;15.88;49.26
62978;BME280;49073;42.352;23.808;2023-04-23T15:29:00;94518.91;;;15.68;48.58
62978;BME280;49073;42.352;23.808;2023-04-23T15:32:02;94518.47;;;15.80;50.23
62978;BME280;49073;42.352;23.808;2023-04-23T15:35:03;94519.31;;;15.59;51.38
62978;BME280;49073;42.352;23.808;2023-04-23T15:38:05;94518.66;;;15.33;50.40
62978;BME280;49073;42.352;23.808;2023-04-23T15:41:06;94512.13;;;15.31;48.96
62978;BME280;49073;42.352;23.808;2023-04-23T15:44:09;94514.47;;;15.14;49.63
62978;BME280;49073;42.352;23.808;2023-04-23T15:47:10;94527.91;;;15.07;50.00
62978;BME280;49073;42.352;23.808;2023-04-23T15:50:12;94517.16;;;15.07;50.39
62978;BME280;49073;42.352;23.808;2023-04-23T15:53:13;94516.81;;;14.90;49.66
62978;BME280;49073;42.352;23.808;2023-04-23T15:56:14;94510.31;;;14.77;49.82
62978;BME280;49073;42.352;23.808;2023-04-23T15:59:14;94516.78;;;14.65;49.86
62978;BME280;49073;42.352;23.808;2023-04-23T16:02:15;94514.50;;;14.52;50.06
62978;BME280;49073;42.352;23.808;2023-04-23T16:05:17;94509.50;;;14.47;51.02